Time;durP1;ratioP1;P1;durP2;ratioP2;P2;SDS_P1;SDS_P2;PMS_P1;PMS_P2;Temp;Humidity;BMP_temperature;BMP_pressure;BME280_temperature;BME280_humidity;BME280_pressure;Samples;Min_cycle;Max_cycle;Signal;HPM_P1;HPM_P2
2023/08/25 00:00:39;;;;;;;7.30;1.25;;;;;;;20.38;100.00;98462.56;5053374;28;20479;-69
2023/08/25 00:03:05;;;;;;;5.13;1.27;;;;;;;20.39;100.00;98456.00;5054856;28;20029;-63
2023/08/25 00:05:36;;;;;;;3.22;1.23;;;;;;;20.33;100.00;98449.66;5047639;28;20074;-62
2023/08/25 00:08:01;;;;;;;3.25;1.20;;;;;;;20.28;100.00;98460.69;5050378;28;20139;-63
2023/08/25 00:10:27;;;;;;;2.72;1.35;;;;;;;20.28;100.00;98450.50;5055714;28;20511;-62
2023/08/25 00:12:52;;;;;;;2.80;1.30;;;;;;;20.23;100.00;98458.75;5059259;28;20036;-62
2023/08/25 00:15:17;;;;;;;14.77;1.40;;;;;;;20.23;100.00;98463.41;5041080;28;20435;-62
2023/08/25 00:17:43;;;;;;;2.25;1.10;;;;;;;20.27;100.00;98467.25;5035473;28;20031;-62
2023/08/25 00:20:12;;;;;;;2.55;1.20;;;;;;;20.26;100.00;98462.88;5040730;28;20052;-62
2023/08/25 00:22:40;;;;;;;1.67;1.10;;;;;;;20.19;100.00;98462.31;5054386;28;20399;-62
2023/08/25 00:25:06;;;;;;;1.98;1.30;;;;;;;20.18;100.00;98464.25;5035280;28;20041;-62
2023/08/25 00:27:31;;;;;;;3.60;1.50;;;;;;;20.28;100.00;98463.44;5053314;28;20028;-62
2023/08/25 00:29:57;;;;;;;4.03;1.40;;;;;;;20.23;100.00;98464.25;5051106;28;20032;-62
2023/08/25 00:32:22;;;;;;;3.55;1.20;;;;;;;20.19;100.00;98460.38;5069464;28;20063;-62
2023/08/25 00:34:47;;;;;;;3.92;1.65;;;;;;;20.21;100.00;98466.44;5050003;28;20035;-62
2023/08/25 00:37:13;;;;;;;2.28;1.30;;;;;;;20.25;100.00;98466.69;5058584;28;20036;-62
2023/08/25 00:39:38;;;;;;;2.17;1.50;;;;;;;20.27;100.00;98464.50;5042320;28;20078;-62
2023/08/25 00:42:04;;;;;;;6.75;1.55;;;;;;;20.27;100.00;98456.25;5049792;28;20047;-62
2023/08/25 00:44:29;;;;;;;4.20;1.90;;;;;;;20.29;100.00;98463.13;5049228;28;20032;-62
2023/08/25 00:46:55;;;;;;;3.00;1.83;;;;;;;20.33;100.00;98458.75;5035956;28;20020;-61
2023/08/25 00:49:23;;;;;;;2.58;1.50;;;;;;;20.35;100.00;98461.19;5070356;28;20115;-62
2023/08/25 00:51:51;;;;;;;6.07;1.48;;;;;;;20.38;100.00;98454.31;5046605;28;20071;-62
2023/08/25 00:54:17;;;;;;;3.25;1.80;;;;;;;20.35;100.00;98451.03;5043303;28;20434;-62
2023/08/25 00:56:43;;;;;;;3.92;1.63;;;;;;;20.40;100.00;98452.94;5051706;28;20071;-61
2023/08/25 00:59:09;;;;;;;3.03;1.80;;;;;;;20.39;100.00;98456.81;5052731;28;20416;-62
2023/08/25 01:01:35;;;;;;;4.35;1.40;;;;;;;20.40;100.00;98447.47;5050659;28;20392;-62
2023/08/25 01:04:00;;;;;;;7.40;1.52;;;;;;;20.40;100.00;98444.72;5071242;28;20119;-62
2023/08/25 01:06:26;;;;;;;5.80;1.50;;;;;;;20.48;100.00;98437.84;5041958;28;20115;-62
2023/08/25 01:08:53;;;;;;;3.28;1.60;;;;;;;20.46;100.00;98434.53;5054562;28;20062;-62
2023/08/25 01:11:28;;;;;;;2.17;1.50;;;;;;;20.41;100.00;98442.78;5050033;28;20384;-62
2023/08/25 01:14:12;;;;;;;4.68;1.60;;;;;;;20.38;100.00;98446.09;5070653;28;20388;-62
2023/08/25 01:16:48;;;;;;;5.32;2.05;;;;;;;20.34;100.00;98443.09;5048519;28;20419;-62
2023/08/25 01:19:52;;;;;;;4.88;1.85;;;;;;;20.27;100.00;98440.59;5056802;28;20032;-64
2023/08/25 01:22:24;;;;;;;4.30;1.80;;;;;;;20.18;100.00;98458.75;5061327;28;20036;-62
2023/08/25 01:24:52;;;;;;;4.40;1.80;;;;;;;20.24;100.00;98443.91;5050065;28;20020;-62
2023/08/25 01:27:18;;;;;;;4.50;1.73;;;;;;;20.31;100.00;98446.38;5050762;28;20050;-61
2023/08/25 01:29:44;;;;;;;2.97;1.50;;;;;;;20.28;100.00;98439.50;5047426;28;20032;-61
2023/08/25 01:32:09;;;;;;;2.72;1.75;;;;;;;20.25;100.00;98450.22;5048542;28;20023;-65
2023/08/25 01:34:36;;;;;;;4.82;2.00;;;;;;;20.20;100.00;98448.31;5051146;28;20020;-62
2023/08/25 01:37:14;;;;;;;4.35;1.90;;;;;;;20.17;100.00;98437.84;5045572;28;20492;-62
2023/08/25 01:39:43;;;;;;;1.67;1.50;;;;;;;20.21;100.00;98427.97;5044897;28;20025;-62
2023/08/25 01:42:09;;;;;;;5.07;1.98;;;;;;;20.23;100.00;98431.28;5050002;28;20395;-62
2023/08/25 01:44:38;;;;;;;3.75;1.58;;;;;;;20.22;100.00;98435.09;5055495;28;20456;-62
2023/08/25 01:47:07;;;;;;;4.40;1.90;;;;;;;20.19;100.00;98430.16;5049357;28;20074;-62
2023/08/25 01:49:36;;;;;;;3.78;1.80;;;;;;;20.18;100.00;98435.94;5056297;28;20043;-62
2023/08/25 01:52:01;;;;;;;9.80;1.92;;;;;;;20.22;100.00;98426.03;5048390;28;20115;-62
2023/08/25 01:54:27;;;;;;;4.47;2.08;;;;;;;20.24;100.00;98432.91;5055700;28;20169;-62
2023/08/25 01:56:52;;;;;;;5.55;2.13;;;;;;;20.28;100.00;98433.19;5049244;28;20131;-62
2023/08/25 01:59:18;;;;;;;2.25;1.58;;;;;;;20.30;100.00;98423.59;5053976;28;20046;-62
2023/08/25 02:01:43;;;;;;;3.50;1.52;;;;;;;20.31;100.00;98435.41;5041358;28;20075;-62
2023/08/25 02:04:08;;;;;;;5.30;1.83;;;;;;;20.35;100.00;98439.22;5052745;28;20032;-62
2023/08/25 02:06:35;;;;;;;2.92;1.70;;;;;;;20.36;100.00;98435.38;5050061;28;20024;-62
2023/08/25 02:09:00;;;;;;;9.40;1.88;;;;;;;20.43;100.00;98433.16;5067615;28;20037;-62
2023/08/25 02:11:25;;;;;;;4.75;1.83;;;;;;;20.43;100.00;98430.41;5056756;28;20116;-62
2023/08/25 02:13:51;;;;;;;2.63;1.80;;;;;;;20.53;100.00;98429.59;5048626;28;20058;-62
2023/08/25 02:16:17;;;;;;;3.42;1.60;;;;;;;20.55;100.00;98419.19;5050500;28;20487;-62
2023/08/25 02:18:42;;;;;;;4.18;1.90;;;;;;;20.53;100.00;98410.34;5055820;28;20021;-62
2023/08/25 02:21:07;;;;;;;5.47;1.55;;;;;;;20.56;100.00;98407.06;5048765;28;20483;-62
2023/08/25 02:23:33;;;;;;;4.13;1.65;;;;;;;20.56;100.00;98407.06;5067933;28;20538;-62
2023/08/25 02:25:58;;;;;;;3.63;2.13;;;;;;;20.59;100.00;98401.00;5053927;28;20020;-62
2023/08/25 02:28:23;;;;;;;4.07;1.50;;;;;;;20.61;100.00;98398.81;5052332;28;20021;-62
2023/08/25 02:30:49;;;;;;;7.20;1.90;;;;;;;20.58;100.00;98410.38;5051587;28;20033;-62
2023/08/25 02:33:15;;;;;;;5.05;1.83;;;;;;;20.53;100.00;98402.09;5047455;28;20025;-62
2023/08/25 02:35:41;;;;;;;3.72;1.77;;;;;;;20.50;100.00;98402.66;5045082;28;20036;-62
2023/08/25 02:38:09;;;;;;;4.22;1.65;;;;;;;20.46;100.00;98409.81;5046350;28;20017;-62
2023/08/25 02:40:34;;;;;;;3.10;2.00;;;;;;;20.48;100.00;98402.13;5055834;28;20029;-62
2023/08/25 02:43:02;;;;;;;6.70;1.88;;;;;;;20.51;100.00;98407.91;5052460;28;20059;-62
2023/08/25 02:45:27;;;;;;;6.35;1.80;;;;;;;20.51;100.00;98405.16;5036830;28;20464;-62
2023/08/25 02:47:54;;;;;;;3.38;1.75;;;;;;;20.56;100.00;98401.56;5036733;28;20055;-66
2023/08/25 02:50:20;;;;;;;3.85;1.90;;;;;;;20.53;100.00;98397.41;5036186;28;20043;-62
2023/08/25 02:52:46;;;;;;;3.42;1.80;;;;;;;20.52;100.00;98397.72;5042914;28;20016;-64
2023/08/25 02:55:16;;;;;;;5.60;1.58;;;;;;;20.53;100.00;98386.44;5058051;28;20124;-67
2023/08/25 02:57:44;;;;;;;3.85;1.55;;;;;;;20.53;100.00;98377.38;5051177;28;20032;-63
2023/08/25 03:00:14;;;;;;;3.53;2.00;;;;;;;20.52;100.00;98368.31;5073204;28;20081;-62
2023/08/25 03:02:40;;;;;;;4.55;1.70;;;;;;;20.52;100.00;98373.81;5033265;28;20029;-64
2023/08/25 03:05:07;;;;;;;6.10;1.70;;;;;;;20.47;100.00;98370.25;5050213;28;20071;-62
2023/08/25 03:07:35;;;;;;;4.72;1.73;;;;;;;20.41;100.00;98361.19;5056390;28;20490;-61
2023/08/25 03:10:01;;;;;;;2.35;1.58;;;;;;;20.30;100.00;98367.78;5045831;28;20063;-64
2023/08/25 03:12:29;;;;;;;5.95;1.90;;;;;;;20.24;100.00;98374.41;5047302;28;20028;-62
2023/08/25 03:14:55;;;;;;;3.80;1.88;;;;;;;20.10;100.00;98374.16;5044301;28;20036;-61
2023/08/25 03:17:22;;;;;;;2.42;2.00;;;;;;;20.02;100.00;98374.72;5050433;28;20029;-61
2023/08/25 03:19:48;;;;;;;7.20;2.42;;;;;;;19.96;100.00;98382.09;5051594;28;20021;-61
2023/08/25 03:22:13;;;;;;;3.28;2.03;;;;;;;19.81;100.00;98376.63;5052145;28;20441;-61
2023/08/25 03:24:39;;;;;;;2.70;2.35;;;;;;;19.56;100.00;98388.38;5051133;28;20024;-61
2023/08/25 03:27:04;;;;;;;4.65;2.25;;;;;;;19.41;100.00;98384.53;5042308;28;20392;-61
2023/08/25 03:29:31;;;;;;;4.75;2.20;;;;;;;19.34;100.00;98375.72;5043397;28;20029;-61
2023/08/25 03:31:57;;;;;;;6.55;2.35;;;;;;;19.34;100.00;98381.19;5047083;28;20487;-61
2023/08/25 03:34:23;;;;;;;5.90;2.10;;;;;;;19.36;100.00;98373.53;5045907;28;20024;-61
2023/08/25 03:36:48;;;;;;;4.95;2.05;;;;;;;19.40;100.00;98380.09;5051133;28;20066;-62
2023/08/25 03:39:13;;;;;;;7.07;2.70;;;;;;;19.41;100.00;98370.81;5055609;28;20493;-61
2023/08/25 03:41:39;;;;;;;6.90;2.15;;;;;;;19.41;100.00;98369.94;5051377;28;20024;-61
2023/08/25 03:44:04;;;;;;;4.10;2.28;;;;;;;19.38;100.00;98367.75;5041615;28;20053;-61
2023/08/25 03:46:31;;;;;;;3.35;2.17;;;;;;;19.40;100.00;98368.31;5048964;28;20110;-62
2023/08/25 03:48:57;;;;;;;6.78;2.10;;;;;;;19.37;100.00;98375.16;5046143;28;20028;-61
2023/08/25 03:51:22;;;;;;;4.03;2.40;;;;;;;19.32;100.00;98375.16;5066132;28;20097;-61
2023/08/25 03:53:48;;;;;;;6.18;2.17;;;;;;;19.32;100.00;98374.34;5054502;28;20025;-61
2023/08/25 03:56:13;;;;;;;2.92;1.95;;;;;;;19.31;100.00;98364.44;5063996;28;20032;-62
2023/08/25 03:58:39;;;;;;;3.72;2.30;;;;;;;19.35;100.00;98358.16;5053149;28;20475;-61
2023/08/25 04:01:04;;;;;;;3.50;1.90;;;;;;;19.42;100.00;98350.50;5050592;28;20025;-61
2023/08/25 04:03:29;;;;;;;5.20;1.90;;;;;;;19.48;100.00;98338.41;5045544;28;20032;-63
2023/08/25 04:05:55;;;;;;;6.75;2.53;;;;;;;19.58;100.00;98331.31;5049367;28;20372;-63
2023/08/25 04:08:20;;;;;;;5.50;2.20;;;;;;;19.59;100.00;98319.22;5040587;28;20021;-63
2023/08/25 04:10:47;;;;;;;8.02;2.10;;;;;;;19.62;100.00;98304.94;5041883;28;20114;-63
2023/08/25 04:13:12;;;;;;;8.63;2.00;;;;;;;19.64;100.00;98302.75;5052196;28;20408;-64
2023/08/25 04:15:38;;;;;;;4.95;2.00;;;;;;;19.63;100.00;98298.38;5046852;28;20020;-63
2023/08/25 04:18:05;;;;;;;4.25;2.47;;;;;;;19.62;100.00;98294.81;5045936;28;20031;-66
2023/08/25 04:20:30;;;;;;;5.13;2.00;;;;;;;19.60;100.00;98301.69;5051891;28;20464;-62
2023/08/25 04:22:56;;;;;;;4.45;1.95;;;;;;;19.56;100.00;98306.06;5052616;28;20028;-63
2023/08/25 04:25:21;;;;;;;6.40;2.30;;;;;;;19.53;100.00;98301.13;5047995;28;20033;-63
2023/08/25 04:27:47;;;;;;;4.55;2.10;;;;;;;19.54;100.00;98300.81;5047063;28;20031;-63
2023/08/25 04:30:12;;;;;;;8.65;2.38;;;;;;;19.52;100.00;98296.72;5067171;28;20028;-63
2023/08/25 04:32:38;;;;;;;3.60;2.10;;;;;;;19.49;100.00;98296.19;5054933;28;20108;-63
2023/08/25 04:35:03;;;;;;;5.40;2.38;;;;;;;19.53;100.00;98309.34;5054340;28;20475;-63
2023/08/25 04:37:29;;;;;;;4.60;2.10;;;;;;;19.49;100.00;98315.38;5065061;28;20049;-63
2023/08/25 04:39:55;;;;;;;4.00;2.25;;;;;;;19.42;100.00;98322.25;5052692;28;20470;-63
2023/08/25 04:42:22;;;;;;;3.78;2.38;;;;;;;19.36;100.00;98320.56;5047419;28;20532;-63
2023/08/25 04:44:48;;;;;;;5.80;2.60;;;;;;;19.28;100.00;98310.94;5045245;28;20038;-65
2023/08/25 04:47:15;;;;;;;5.72;3.08;;;;;;;19.20;100.00;98319.72;5054478;28;20032;-64
2023/08/25 04:49:43;;;;;;;9.07;4.35;;;;;;;19.13;100.00;98305.47;5066368;28;20028;-58
2023/08/25 04:52:08;;;;;;;7.53;3.08;;;;;;;19.08;100.00;98306.28;5046147;28;20051;-58
2023/08/25 04:54:33;;;;;;;6.55;3.15;;;;;;;19.07;100.00;98306.53;5051981;28;20361;-65
2023/08/25 04:56:59;;;;;;;6.20;2.92;;;;;;;19.01;100.00;98303.78;5048367;28;20081;-65
2023/08/25 04:59:24;;;;;;;6.22;3.05;;;;;;;18.99;100.00;98302.41;5067983;28;20052;-64
2023/08/25 05:01:50;;;;;;;8.00;3.03;;;;;;;18.98;100.00;98307.06;5056279;28;20456;-65
2023/08/25 05:04:15;;;;;;;7.43;3.58;;;;;;;18.99;100.00;98306.00;5049320;28;20052;-66
2023/08/25 05:06:40;;;;;;;3.65;2.92;;;;;;;19.04;100.00;98305.16;5051258;28;20115;-65
2023/08/25 05:09:06;;;;;;;6.30;3.00;;;;;;;19.15;100.00;98306.00;5051100;28;20025;-65
2023/08/25 05:11:33;;;;;;;4.93;2.67;;;;;;;19.27;100.00;98303.84;5047327;28;20044;-65
2023/08/25 05:14:00;;;;;;;4.10;2.40;;;;;;;19.46;100.00;98291.22;5055453;28;20016;-65
2023/08/25 05:16:26;;;;;;;5.20;2.63;;;;;;;19.65;100.00;98282.47;5054347;28;20024;-65
2023/08/25 05:18:51;;;;;;;5.72;2.78;;;;;;;19.82;100.00;98271.22;5071066;28;20039;-65
2023/08/25 05:21:16;;;;;;;5.80;2.50;;;;;;;19.98;100.00;98264.59;5046632;28;20035;-64
2023/08/25 05:23:43;;;;;;;4.40;2.35;;;;;;;20.23;100.00;98274.69;5055935;28;20028;-65
2023/08/25 05:26:08;;;;;;;3.17;2.40;;;;;;;20.59;100.00;98288.31;5048588;28;20025;-65
2023/08/25 05:28:34;;;;;;;4.30;2.45;;;;;;;20.98;100.00;98287.59;5043068;28;20029;-57
2023/08/25 05:30:59;;;;;;;6.53;2.60;;;;;;;21.38;100.00;98282.97;5049036;28;20387;-57
2023/08/25 05:33:24;;;;;;;9.32;2.70;;;;;;;21.70;100.00;98287.13;5065844;28;20020;-57
2023/08/25 05:35:50;;;;;;;5.13;2.35;;;;;;;22.16;100.00;98267.38;5044920;28;20090;-57
2023/08/25 05:38:15;;;;;;;3.35;2.10;;;;;;;22.63;100.00;98262.97;5053025;28;20025;-57
2023/08/25 05:40:40;;;;;;;5.70;2.17;;;;;;;23.04;100.00;98266.03;5049352;28;20033;-57
2023/08/25 05:43:06;;;;;;;6.25;2.08;;;;;;;23.54;100.00;98260.03;5051188;28;20029;-58
2023/08/25 05:45:31;;;;;;;3.33;2.15;;;;;;;23.89;100.00;98253.06;5050269;28;20534;-58
2023/08/25 05:47:57;;;;;;;3.47;1.95;;;;;;;23.76;100.00;98251.94;5051901;28;20028;-58
2023/08/25 05:50:22;;;;;;;3.63;2.05;;;;;;;23.59;100.00;98258.00;5070264;28;20029;-57
2023/08/25 05:52:47;;;;;;;6.68;2.05;;;;;;;23.77;100.00;98263.81;5068189;28;20071;-58
2023/08/25 05:55:13;;;;;;;6.22;2.35;;;;;;;23.31;100.00;98278.34;5044459;28;20032;-58
2023/08/25 05:57:39;;;;;;;5.22;2.22;;;;;;;23.00;100.00;98287.06;5052431;28;20032;-58
2023/08/25 06:00:06;;;;;;;6.20;2.38;;;;;;;22.91;100.00;98311.69;5048117;28;20025;-58
2023/08/25 06:02:32;;;;;;;3.63;1.90;;;;;;;22.92;100.00;98326.31;5042219;28;20025;-58
2023/08/25 06:04:58;;;;;;;5.00;1.98;;;;;;;22.82;100.00;98346.59;5058902;28;20051;-65
2023/08/25 06:07:24;;;;;;;5.45;1.75;;;;;;;22.60;100.00;98371.09;5056548;28;20361;-66
2023/08/25 06:09:49;;;;;;;4.85;2.08;;;;;;;22.26;100.00;98400.38;5048419;28;20112;-66
2023/08/25 06:12:15;;;;;;;3.75;1.90;;;;;;;22.08;100.00;98440.44;5054423;28;20460;-60
2023/08/25 06:14:40;;;;;;;5.28;1.95;;;;;;;21.93;100.00;98478.31;5051131;28;20021;-61
2023/08/25 06:17:06;;;;;;;2.92;1.80;;;;;;;21.79;100.00;98500.16;5055933;28;20028;-58
2023/08/25 06:19:31;;;;;;;4.30;2.03;;;;;;;21.60;100.00;98467.78;5056293;28;20123;-58
2023/08/25 06:21:57;;;;;;;5.55;2.20;;;;;;;21.48;100.00;98449.94;5055168;28;20112;-59
2023/08/25 06:24:24;;;;;;;4.65;1.73;;;;;;;21.30;100.00;98484.38;5052222;28;20025;-58
2023/08/25 06:26:51;;;;;;;5.78;2.08;;;;;;;21.29;100.00;98546.03;5048050;28;20353;-58
2023/08/25 06:29:16;;;;;;;7.32;1.88;;;;;;;21.09;100.00;98579.91;5045625;28;20037;-58
2023/08/25 06:31:42;;;;;;;5.45;2.30;;;;;;;21.07;100.00;98591.22;5051882;28;20035;-58
2023/08/25 06:34:08;;;;;;;7.10;2.47;;;;;;;21.05;100.00;98609.09;5048683;28;20053;-59
2023/08/25 06:36:33;;;;;;;4.95;2.30;;;;;;;21.01;100.00;98609.66;5044227;28;20103;-61
2023/08/25 06:38:59;;;;;;;14.15;2.85;;;;;;;20.82;100.00;98596.72;5054843;28;20036;-63
2023/08/25 06:41:25;;;;;;;10.27;3.03;;;;;;;20.38;100.00;98597.22;5050341;28;20039;-59
2023/08/25 06:43:51;;;;;;;7.50;2.53;;;;;;;20.18;100.00;98603.50;5047379;28;20033;-60
2023/08/25 06:46:16;;;;;;;5.53;2.92;;;;;;;20.07;100.00;98614.47;5051233;28;20068;-59
2023/08/25 06:48:42;;;;;;;11.15;2.97;;;;;;;19.98;100.00;98601.53;5050688;28;20032;-60
2023/08/25 06:51:07;;;;;;;9.85;3.78;;;;;;;19.91;100.00;98624.56;5045450;28;20055;-62
2023/08/25 06:53:33;;;;;;;6.35;3.15;;;;;;;19.88;100.00;98638.00;5049966;28;20027;-62
2023/08/25 06:55:58;;;;;;;6.57;3.33;;;;;;;19.82;100.00;98628.09;5040469;28;20062;-66
2023/08/25 06:58:23;;;;;;;5.18;2.80;;;;;;;19.77;100.00;98604.19;5049304;28;20131;-66
2023/08/25 07:00:50;;;;;;;6.03;3.20;;;;;;;19.77;100.00;98615.16;5067127;28;20055;-66
2023/08/25 07:03:16;;;;;;;8.73;3.28;;;;;;;19.73;100.00;98618.69;5054679;28;20024;-66
2023/08/25 07:05:41;;;;;;;10.30;3.40;;;;;;;19.73;100.00;98613.22;5056477;28;20025;-65
2023/08/25 07:08:07;;;;;;;5.90;3.03;;;;;;;19.71;100.00;98616.25;5050766;28;20553;-66
2023/08/25 07:10:34;;;;;;;8.35;3.47;;;;;;;19.64;100.00;98626.59;5061077;28;20049;-65
2023/08/25 07:13:00;;;;;;;9.05;4.00;;;;;;;19.61;100.00;98633.44;5038066;28;20126;-65
2023/08/25 07:15:25;;;;;;;4.72;3.22;;;;;;;19.51;100.00;98629.81;5049403;28;20028;-66
2023/08/25 07:17:51;;;;;;;9.65;4.22;;;;;;;19.53;100.00;98616.66;5054205;28;20071;-65
2023/08/25 07:20:17;;;;;;;8.75;4.07;;;;;;;19.52;100.00;98593.03;5044664;28;20021;-66
2023/08/25 07:22:42;;;;;;;7.43;4.22;;;;;;;19.53;100.00;98581.00;5046561;28;20483;-67
2023/08/25 07:25:08;;;;;;;7.03;3.72;;;;;;;19.56;100.00;98591.44;5065455;28;20036;-66
2023/08/25 07:27:34;;;;;;;8.63;3.92;;;;;;;19.57;100.00;98598.56;5053512;28;20070;-66
2023/08/25 07:29:59;;;;;;;5.97;4.10;;;;;;;19.59;100.00;98601.88;5044679;28;20054;-65
2023/08/25 07:32:26;;;;;;;12.85;4.85;;;;;;;19.54;100.00;98621.06;5051730;28;20043;-65
2023/08/25 07:34:51;;;;;;;12.27;4.70;;;;;;;19.52;100.00;98635.06;5047619;28;20112;-66
2023/08/25 07:37:16;;;;;;;7.47;5.07;;;;;;;19.42;100.00;98624.84;5055534;28;20119;-66
2023/08/25 07:39:42;;;;;;;5.30;4.05;;;;;;;19.24;100.00;98604.16;5051770;28;20028;-66
2023/08/25 07:42:08;;;;;;;7.75;4.45;;;;;;;19.11;100.00;98618.34;5036756;28;20090;-65
2023/08/25 07:44:36;;;;;;;7.30;5.07;;;;;;;19.07;100.00;98627.34;5049361;28;20507;-65
2023/08/25 07:47:01;;;;;;;12.23;4.72;;;;;;;19.02;100.00;98653.66;5043953;28;20035;-66
2023/08/25 07:49:27;;;;;;;10.23;5.13;;;;;;;19.00;100.00;98674.19;5039542;28;20032;-65
2023/08/25 07:51:52;;;;;;;7.68;5.05;;;;;;;18.98;100.00;98696.38;5037161;28;20033;-64
2023/08/25 07:54:17;;;;;;;13.30;5.43;;;;;;;18.96;100.00;98715.00;5051807;28;20100;-64
2023/08/25 07:56:43;;;;;;;10.05;5.85;;;;;;;18.97;100.00;98716.66;5054593;28;20016;-65
2023/08/25 07:59:09;;;;;;;13.57;6.70;;;;;;;18.96;100.00;98720.47;5037645;28;20104;-65
2023/08/25 08:01:34;;;;;;;11.95;6.85;;;;;;;18.87;100.00;98722.06;5053797;28;20086;-65
2023/08/25 08:03:59;;;;;;;14.05;6.75;;;;;;;18.92;100.00;98719.34;5050664;28;20039;-66
2023/08/25 08:06:25;;;;;;;14.55;6.93;;;;;;;18.79;100.00;98745.28;5043915;28;20027;-66
2023/08/25 08:08:50;;;;;;;12.88;7.00;;;;;;;18.79;100.00;98756.22;5045626;28;20430;-65
2023/08/25 08:11:16;;;;;;;10.65;6.75;;;;;;;18.75;100.00;98752.34;5061629;28;20067;-65
2023/08/25 08:13:41;;;;;;;14.07;7.30;;;;;;;18.77;100.00;98771.28;5059776;28;20505;-66
2023/08/25 08:16:07;;;;;;;20.23;7.90;;;;;;;18.77;100.00;98777.59;5057313;28;20591;-66
2023/08/25 08:18:32;;;;;;;16.80;8.70;;;;;;;18.79;100.00;98747.19;5042544;28;20025;-66
2023/08/25 08:20:58;;;;;;;12.95;6.88;;;;;;;18.78;100.00;98753.75;5048176;28;20054;-65
2023/08/25 08:23:23;;;;;;;16.08;7.93;;;;;;;18.79;100.00;98750.75;5050647;28;20048;-66
2023/08/25 08:25:49;;;;;;;11.70;7.20;;;;;;;18.85;100.00;98713.25;5042793;28;20107;-67
2023/08/25 08:28:15;;;;;;;14.18;6.78;;;;;;;18.76;100.00;98725.78;5036346;28;20392;-66
2023/08/25 08:30:43;;;;;;;11.55;5.88;;;;;;;18.73;100.00;98720.75;5052495;28;20215;-65
2023/08/25 08:33:08;;;;;;;9.85;5.90;;;;;;;18.80;100.00;98721.44;5048534;28;20094;-65
2023/08/25 08:35:34;;;;;;;8.25;4.25;;;;;;;18.77;100.00;98720.03;5054000;28;20032;-65
2023/08/25 08:38:00;;;;;;;9.05;4.38;;;;;;;18.81;100.00;98706.63;5043700;28;20063;-65
2023/08/25 08:40:26;;;;;;;5.28;3.42;;;;;;;18.84;100.00;98700.66;5044225;28;20033;-65
2023/08/25 08:42:56;;;;;;;6.38;3.10;;;;;;;18.97;100.00;98677.47;5039303;28;20480;-65
2023/08/25 08:45:24;;;;;;;8.38;3.33;;;;;;;18.89;100.00;98684.25;5044231;28;20124;-65
2023/08/25 08:47:50;;;;;;;6.43;2.97;;;;;;;18.92;100.00;98680.16;5050989;28;20067;-61
2023/08/25 08:50:17;;;;;;;5.40;3.30;;;;;;;18.88;100.00;98657.91;5048556;28;20029;-61
2023/08/25 08:52:47;;;;;;;8.23;3.38;;;;;;;18.91;100.00;98671.09;5048255;28;20038;-61
2023/08/25 08:55:15;;;;;;;7.38;3.25;;;;;;;18.81;100.00;98606.06;5040512;28;20036;-61
2023/08/25 08:57:43;;;;;;;6.72;2.72;;;;;;;18.78;100.00;98562.69;5062270;28;20043;-61
2023/08/25 09:00:12;;;;;;;7.78;3.80;;;;;;;18.81;100.00;98570.44;5047739;28;20055;-66
2023/08/25 09:02:38;;;;;;;5.13;3.63;;;;;;;18.87;100.00;98563.06;5042977;28;20027;-61
2023/08/25 09:05:05;;;;;;;5.35;3.72;;;;;;;19.01;100.00;98569.72;5053956;28;20032;-61
2023/08/25 09:07:32;;;;;;;5.78;3.70;;;;;;;18.88;100.00;98570.19;5050696;28;20079;-61
2023/08/25 09:09:58;;;;;;;9.70;3.63;;;;;;;18.88;100.00;98547.44;5040263;28;20423;-61
2023/08/25 09:12:25;;;;;;;6.22;4.05;;;;;;;18.87;100.00;98524.69;5044216;28;20436;-63
2023/08/25 09:14:50;;;;;;;5.00;3.22;;;;;;;18.79;100.00;98495.84;5045926;28;20090;-61
2023/08/25 09:17:16;;;;;;;6.32;3.55;;;;;;;18.78;100.00;98482.41;5054990;28;20471;-62
2023/08/25 09:19:42;;;;;;;12.18;4.03;;;;;;;18.82;100.00;98418.56;5053594;28;20250;-62
2023/08/25 09:22:13;;;;;;;6.85;4.30;;;;;;;18.95;100.00;98419.19;5052509;28;20064;-62
2023/08/25 09:24:42;;;;;;;8.35;4.10;;;;;;;19.13;100.00;98424.19;5049496;28;20060;-63
2023/08/25 09:27:21;;;;;;;5.60;3.65;;;;;;;19.69;100.00;98461.97;5046341;28;20029;-63
2023/08/25 09:29:46;;;;;;;;;;;;;;;19.91;100.00;98494.66;5045845;28;20037;-63
2023/08/25 09:32:14;;;;;;;4.38;2.50;;;;;;;20.23;100.00;98479.91;5055399;28;20003;-63
2023/08/25 09:34:40;;;;;;;3.90;2.35;;;;;;;20.77;100.00;98440.84;5043995;28;20439;-67
2023/08/25 09:37:07;;;;;;;5.20;2.75;;;;;;;20.89;100.00;98449.59;5045889;28;20032;-66
2023/08/25 09:39:44;;;;;;;5.38;2.78;;;;;;;21.08;100.00;98460.81;5052740;28;20269;-66
2023/08/25 09:42:10;;;;;;;9.18;2.60;;;;;;;21.26;100.00;98447.56;5039313;28;20032;-62
2023/08/25 09:44:36;;;;;;;4.90;2.60;;;;;;;21.44;100.00;98433.19;5055872;28;20033;-62
2023/08/25 09:47:01;;;;;;;7.25;2.50;;;;;;;21.83;100.00;98407.63;5056106;28;20476;-62
2023/08/25 09:49:37;;;;;;;6.40;2.67;;;;;;;22.01;100.00;98375.81;5042207;28;20162;-62
2023/08/25 09:52:05;;;;;;;5.70;2.25;;;;;;;21.75;100.00;98364.16;5044146;28;20025;-61
2023/08/25 09:54:32;;;;;;;7.60;2.58;;;;;;;21.28;100.00;98373.81;5053076;28;20024;-61
2023/08/25 09:56:58;;;;;;;4.75;2.08;;;;;;;20.94;100.00;98391.03;5046879;28;20033;-61
2023/08/25 09:59:24;;;;;;;5.82;2.72;;;;;;;20.87;100.00;98402.31;5035508;28;20444;-61
2023/08/25 10:01:49;;;;;;;7.45;2.67;;;;;;;20.74;100.00;98422.97;5046103;28;20055;-66
2023/08/25 10:04:16;;;;;;;6.32;2.40;;;;;;;20.76;100.00;98430.94;5050021;28;20032;-61
2023/08/25 10:06:42;;;;;;;4.72;2.60;;;;;;;20.71;100.00;98418.03;5051481;28;20025;-62
2023/08/25 10:09:08;;;;;;;4.63;2.70;;;;;;;20.56;100.00;98443.63;5052455;28;20075;-62
2023/08/25 10:11:43;;;;;;;9.63;3.10;;;;;;;20.46;100.00;98451.03;5044746;28;20455;-61
2023/08/25 10:14:12;;;;;;;6.32;2.88;;;;;;;20.56;100.00;98489.53;5051453;28;20384;-62
2023/08/25 10:16:51;;;;;;;4.80;2.60;;;;;;;20.39;100.00;98494.47;5055654;28;20035;-62
2023/08/25 10:19:26;;;;;;;4.47;2.55;;;;;;;20.34;100.00;98504.34;5045908;28;20037;-67
2023/08/25 10:21:53;;;;;;;3.75;2.63;;;;;;;20.42;100.00;98508.47;5053233;28;20677;-66
2023/08/25 10:24:20;;;;;;;6.32;2.95;;;;;;;20.42;100.00;98510.41;5053526;28;20036;-61
2023/08/25 10:26:47;;;;;;;8.60;2.70;;;;;;;20.58;100.00;98520.31;5053196;28;20024;-64
2023/08/25 10:29:17;;;;;;;4.45;3.00;;;;;;;20.90;100.00;98527.41;5047670;28;20038;-62
2023/08/25 10:31:59;;;;;;;5.35;2.90;;;;;;;21.02;100.00;98525.22;5047627;28;20041;-61
2023/08/25 10:34:36;;;;;;;6.82;2.67;;;;;;;21.22;100.00;98546.31;5041150;28;20025;-61
2023/08/25 10:37:12;;;;;;;5.00;2.78;;;;;;;21.47;100.00;98547.41;5045477;28;20033;-62
2023/08/25 10:39:49;;;;;;;4.88;2.58;;;;;;;21.55;100.00;98544.88;5048306;28;20495;-62
2023/08/25 10:42:22;;;;;;;3.25;2.47;;;;;;;21.49;100.00;98524.00;5048347;28;20066;-62
2023/08/25 10:44:52;;;;;;;5.18;2.40;;;;;;;21.44;100.00;98532.28;5064326;28;20032;-63
2023/08/25 10:47:18;;;;;;;6.70;2.95;;;;;;;21.55;100.00;98547.63;5052621;28;20044;-64
2023/08/25 10:49:45;;;;;;;3.85;2.72;;;;;;;21.80;100.00;98541.19;5042587;28;20024;-64
2023/08/25 10:52:19;;;;;;;4.80;2.50;;;;;;;22.01;100.00;98519.03;5038869;28;20059;-64
2023/08/25 10:54:46;;;;;;;3.97;2.70;;;;;;;22.33;100.00;98504.78;5046595;28;20025;-68
2023/08/25 10:57:19;;;;;;;5.78;2.38;;;;;;;22.68;100.00;98494.56;5055064;28;20111;-65
2023/08/25 10:59:55;;;;;;;4.93;2.40;;;;;;;23.01;100.00;98483.78;5052599;28;20064;-65
2023/08/25 11:02:36;;;;;;;3.72;2.53;;;;;;;23.07;100.00;98471.56;5040907;28;20421;-65
2023/08/25 11:05:33;;;;;;;5.65;2.50;;;;;;;23.13;100.00;98464.88;5047365;28;20090;-65
2023/08/25 11:08:23;;;;;;;5.57;2.30;;;;;;;23.16;100.00;98458.75;5036907;28;20361;-65
2023/08/25 11:11:12;;;;;;;4.82;2.28;;;;;;;23.23;100.00;98450.94;5050850;28;20028;-61
2023/08/25 11:13:39;;;;;;;4.55;2.35;;;;;;;23.43;100.00;98426.97;5045939;28;20021;-61
2023/08/25 11:16:10;;;;;;;4.18;1.92;;;;;;;23.90;100.00;98414.16;5064782;28;20028;-61
2023/08/25 11:18:35;;;;;;;5.78;2.15;;;;;;;23.84;100.00;98416.16;5050387;28;20032;-61
2023/08/25 11:21:02;;;;;;;3.58;2.20;;;;;;;24.03;100.00;98414.22;5050418;28;20093;-61
2023/08/25 11:23:54;;;;;;;6.65;2.58;;;;;;;24.23;100.00;98426.88;5047169;28;20028;-61